createdAt,value
2018-12-07T04:17:12.780Z,10.20
2018-12-07T04:19:41.459Z,10.20
2018-12-07T04:22:09.751Z,10.20
2018-12-07T04:24:38.083Z,10.20
2018-12-07T04:27:07.411Z,10.20
2018-12-07T04:34:39.100Z,10.20
2018-12-07T04:37:07.537Z,10.20
2018-12-07T04:39:36.404Z,10.20
2018-12-07T04:42:05.003Z,10.10
2018-12-07T04:44:33.563Z,10.20
2018-12-07T04:47:01.834Z,10.20
2018-12-07T04:49:30.194Z,10.20
2018-12-07T04:51:58.538Z,10.20
2018-12-07T04:54:29.906Z,10.20
2018-12-07T04:56:58.202Z,10.20
2018-12-07T04:59:26.501Z,10.20
2018-12-07T05:01:54.985Z,10.30
2018-12-07T05:04:23.948Z,10.30
2018-12-07T05:06:52.577Z,10.30
2018-12-07T05:09:21.251Z,10.30
2018-12-07T05:11:49.567Z,10.30
2018-12-07T05:14:18.536Z,10.30
2018-12-07T05:16:47.201Z,10.40
2018-12-07T05:19:16.205Z,10.40
2018-12-07T05:21:44.494Z,10.30
2018-12-07T05:24:13.150Z,10.30
2018-12-07T05:26:41.675Z,10.30
2018-12-07T05:29:09.976Z,10.30
2018-12-07T05:31:38.432Z,10.30
2018-12-07T05:34:06.794Z,10.40
2018-12-07T05:36:35.305Z,10.40
2018-12-07T05:39:07.037Z,10.40
2018-12-07T05:41:35.647Z,10.40
2018-12-07T05:44:04.369Z,10.40
2018-12-07T05:46:33.515Z,10.40
2018-12-07T05:49:02.099Z,10.40
2018-12-07T05:51:30.643Z,10.30
2018-12-07T05:53:58.946Z,10.30
2018-12-07T05:56:27.459Z,10.30
2018-12-07T05:58:56.146Z,10.20
2018-12-07T06:01:24.726Z,10.20
2018-12-07T06:03:53.331Z,10.20
2018-12-07T06:06:21.879Z,10.20
2018-12-07T06:08:50.174Z,10.20
2018-12-07T06:11:18.524Z,10.10
2018-12-07T06:13:46.816Z,10.10
2018-12-07T06:16:15.830Z,10.00
2018-12-07T06:18:44.384Z,10.00
2018-12-07T06:21:13.094Z,10.00
2018-12-07T06:23:41.856Z,10.10
2018-12-07T06:26:10.202Z,10.10
2018-12-07T06:28:38.654Z,10.20
2018-12-07T06:31:06.959Z,10.20
2018-12-07T06:33:35.565Z,10.20
2018-12-07T06:36:03.909Z,10.30
2018-12-07T06:38:32.957Z,10.20
2018-12-07T06:41:01.541Z,10.30
2018-12-07T06:43:30.221Z,10.20
2018-12-07T06:45:58.980Z,10.20
2018-12-07T06:48:27.547Z,10.20
2018-12-07T06:50:55.942Z,10.20
2018-12-07T06:53:24.315Z,10.30
2018-12-07T06:55:53.000Z,10.30
2018-12-07T06:58:21.557Z,10.20
2018-12-07T07:00:50.376Z,10.30
2018-12-07T07:03:18.762Z,10.40
2018-12-07T07:05:47.660Z,10.50
2018-12-07T07:08:16.326Z,10.60
2018-12-07T07:10:44.888Z,10.50
2018-12-07T07:13:13.455Z,10.40
2018-12-07T07:15:41.802Z,10.40
2018-12-07T07:18:10.530Z,10.40
2018-12-07T07:20:38.890Z,10.40
2018-12-07T07:23:07.238Z,10.40
2018-12-07T07:25:35.866Z,10.40
2018-12-07T07:28:04.955Z,10.40
2018-12-07T07:35:40.677Z,10.40
2018-12-07T07:38:09.299Z,10.40
2018-12-07T07:40:37.961Z,10.50
2018-12-07T07:43:06.334Z,10.60
2018-12-07T07:45:34.942Z,10.60
2018-12-07T07:48:03.463Z,10.60
2018-12-07T07:50:32.055Z,10.60
2018-12-07T07:53:01.003Z,10.70
2018-12-07T07:55:29.401Z,10.70
2018-12-07T07:57:57.821Z,10.70
2018-12-07T08:00:26.354Z,10.70
2018-12-07T08:02:54.638Z,10.80
2018-12-07T08:05:23.226Z,10.80
2018-12-07T08:07:51.510Z,10.80
2018-12-07T08:10:19.790Z,10.80
2018-12-07T08:12:48.219Z,10.90
2018-12-07T08:15:17.213Z,10.90
2018-12-07T08:17:45.500Z,11.00
2018-12-07T08:20:14.206Z,11.00
2018-12-07T08:22:42.784Z,11.10
2018-12-07T08:25:11.515Z,11.10
2018-12-07T08:27:39.917Z,11.10
2018-12-07T08:30:10.663Z,11.10
2018-12-07T08:32:39.249Z,11.10
2018-12-07T08:35:08.664Z,11.20
2018-12-07T08:37:37.387Z,11.30
2018-12-07T08:40:07.662Z,11.40
2018-12-07T08:42:36.362Z,11.40
2018-12-07T08:45:07.298Z,11.50
2018-12-07T08:47:36.433Z,11.40
2018-12-07T08:50:06.535Z,11.40
2018-12-07T08:52:35.451Z,11.50
2018-12-07T08:55:04.736Z,11.60
2018-12-07T08:57:33.557Z,11.70
2018-12-07T09:00:02.852Z,11.80
2018-12-07T09:02:31.798Z,12.20
2018-12-07T09:05:00.334Z,12.40
2018-12-07T09:07:28.811Z,12.40
2018-12-07T09:09:57.361Z,12.50
2018-12-07T09:12:25.687Z,12.50
2018-12-07T09:14:54.240Z,12.50
2018-12-07T09:17:22.793Z,12.50
2018-12-07T09:19:51.810Z,12.50
2018-12-07T09:22:20.386Z,12.40
2018-12-07T09:24:48.707Z,12.30
2018-12-07T09:27:17.272Z,12.40
2018-12-07T09:29:45.569Z,12.30
2018-12-07T09:32:13.867Z,12.40
2018-12-07T09:34:42.581Z,12.50
2018-12-07T09:37:10.850Z,12.80
2018-12-07T09:39:39.570Z,12.90
2018-12-07T09:42:08.330Z,13.00
2018-12-07T09:44:36.598Z,13.20
2018-12-07T09:47:05.989Z,13.10
2018-12-07T09:49:34.322Z,13.10
2018-12-07T09:52:02.613Z,13.10
2018-12-07T09:54:32.132Z,13.10
2018-12-07T09:57:00.430Z,13.10
2018-12-07T09:59:29.638Z,13.20
2018-12-07T10:01:58.005Z,13.20
2018-12-07T10:04:26.976Z,13.20
2018-12-07T10:06:55.645Z,13.20
2018-12-07T10:09:24.378Z,13.00
2018-12-07T10:11:53.330Z,13.00
2018-12-07T10:14:21.891Z,12.90
2018-12-07T10:16:50.155Z,12.80
2018-12-07T10:19:18.713Z,12.80
2018-12-07T10:21:47.293Z,12.70
2018-12-07T10:24:16.092Z,12.70
2018-12-07T10:26:44.640Z,12.70
2018-12-07T10:29:13.191Z,12.70
2018-12-07T10:31:41.667Z,12.70
2018-12-07T10:34:12.702Z,12.70
2018-12-07T10:36:41.275Z,12.60
2018-12-07T10:39:10.222Z,12.60
2018-12-07T10:41:39.287Z,12.50
2018-12-07T10:44:07.877Z,12.40
2018-12-07T10:46:36.423Z,12.40
2018-12-07T10:49:04.793Z,12.50
2018-12-07T10:51:33.230Z,12.40
2018-12-07T10:54:02.182Z,12.50
2018-12-07T10:56:30.495Z,12.50
2018-12-07T10:58:59.224Z,12.60
2018-12-07T11:01:33.084Z,12.70
2018-12-07T11:04:07.015Z,13.00
2018-12-07T11:06:40.803Z,13.10
2018-12-07T11:09:15.005Z,13.20
2018-12-07T11:11:51.452Z,13.30
2018-12-07T11:14:25.691Z,13.30
2018-12-07T11:16:59.732Z,13.20
2018-12-07T11:19:33.342Z,13.10
2018-12-07T11:22:07.221Z,12.80
2018-12-07T11:24:40.684Z,12.70
2018-12-07T11:27:14.869Z,12.70
2018-12-07T11:29:48.706Z,12.80
2018-12-07T11:32:21.469Z,12.80
2018-12-07T11:34:54.542Z,12.90
2018-12-07T11:37:22.922Z,12.90
2018-12-07T11:39:51.472Z,12.90
2018-12-07T11:42:20.025Z,12.70
2018-12-07T11:44:48.589Z,12.80
2018-12-07T11:47:16.865Z,12.90
2018-12-07T11:49:45.434Z,13.00
2018-12-07T11:52:13.711Z,13.20
2018-12-07T11:54:42.250Z,13.30
2018-12-07T11:57:10.555Z,13.30
2018-12-07T11:59:39.447Z,13.30
2018-12-07T12:02:07.997Z,13.30
2018-12-07T12:04:36.275Z,13.30
2018-12-07T12:07:05.241Z,13.50
2018-12-07T12:09:33.962Z,13.80
2018-12-07T12:12:02.941Z,14.00
2018-12-07T12:14:31.259Z,14.10
2018-12-07T12:16:59.533Z,14.10
2018-12-07T12:19:28.833Z,14.30
2018-12-07T12:21:57.641Z,14.40
2018-12-07T12:24:25.925Z,14.20
2018-12-07T12:26:54.495Z,14.10
2018-12-07T12:29:22.933Z,13.90
2018-12-07T12:31:51.524Z,13.70
2018-12-07T12:34:19.931Z,13.50
2018-12-07T12:36:48.198Z,13.40
2018-12-07T12:39:16.763Z,13.40
2018-12-07T12:41:46.902Z,13.30
2018-12-07T12:44:15.639Z,13.40
2018-12-07T12:46:44.329Z,13.50
2018-12-07T12:49:12.877Z,13.60
2018-12-07T12:51:41.179Z,13.60
2018-12-07T12:54:09.459Z,13.50
2018-12-07T12:56:38.078Z,13.60
2018-12-07T12:59:06.772Z,13.60
2018-12-07T13:01:35.065Z,13.50
2018-12-07T13:04:04.057Z,13.50
2018-12-07T13:06:32.409Z,13.50
2018-12-07T13:09:00.729Z,13.30
2018-12-07T13:11:29.538Z,13.30
2018-12-07T13:13:58.050Z,13.20
2018-12-07T13:16:26.626Z,13.10
2018-12-07T13:18:54.966Z,13.10
2018-12-07T13:21:23.613Z,13.00
2018-12-07T13:23:51.931Z,13.10
2018-12-07T13:26:20.652Z,13.00
2018-12-07T13:28:48.937Z,13.00
2018-12-07T13:31:17.936Z,13.00
2018-12-07T13:33:46.505Z,13.00
2018-12-07T13:36:15.082Z,13.00
2018-12-07T13:38:43.637Z,13.10
2018-12-07T13:41:12.266Z,13.10
2018-12-07T13:43:41.217Z,13.00
2018-12-07T13:46:10.196Z,13.00
2018-12-07T13:48:39.084Z,13.00
2018-12-07T13:51:08.292Z,12.90
2018-12-07T13:53:38.174Z,12.90
2018-12-07T13:56:07.376Z,13.00
2018-12-07T13:58:35.960Z,13.00
2018-12-07T14:01:04.786Z,13.00
2018-12-07T14:03:33.672Z,12.90
2018-12-07T14:06:03.291Z,12.80
2018-12-07T14:08:32.030Z,12.70
2018-12-07T14:11:00.641Z,12.70
2018-12-07T14:13:29.259Z,12.70
2018-12-07T14:15:57.928Z,12.60
2018-12-07T14:18:26.704Z,12.60
2018-12-07T14:20:55.350Z,12.60
2018-12-07T14:23:23.929Z,12.60
2018-12-07T14:25:52.632Z,12.50
2018-12-07T14:28:21.323Z,12.40
2018-12-07T14:30:50.383Z,12.30
2018-12-07T14:33:18.948Z,12.30
2018-12-07T14:35:48.350Z,12.20
2018-12-07T14:38:16.838Z,12.20
2018-12-07T14:40:45.573Z,12.10
2018-12-07T14:43:14.530Z,12.20
2018-12-07T14:45:43.777Z,12.20
2018-12-07T14:48:12.405Z,12.30
2018-12-07T14:50:41.548Z,12.30
2018-12-07T14:53:10.416Z,12.30
2018-12-07T14:55:39.144Z,12.30
2018-12-07T14:58:07.861Z,12.20
2018-12-07T15:00:36.450Z,12.20
2018-12-07T15:03:05.395Z,12.20
2018-12-07T15:05:34.408Z,12.20
2018-12-07T15:08:03.338Z,12.20
2018-12-07T15:10:32.317Z,12.20
2018-12-07T15:13:02.697Z,12.10
2018-12-07T15:15:31.764Z,12.10
2018-12-07T15:18:00.581Z,12.00
2018-12-07T15:20:30.164Z,12.00
2018-12-07T15:22:59.441Z,12.00
2018-12-07T15:25:27.969Z,11.90
2018-12-07T15:27:56.840Z,11.90
2018-12-07T15:30:25.684Z,11.80
2018-12-07T15:32:54.693Z,11.80
2018-12-07T15:35:23.694Z,11.70
2018-12-07T15:37:52.407Z,11.80
2018-12-07T15:40:21.093Z,11.80
2018-12-07T15:42:49.883Z,11.70
2018-12-07T15:45:18.899Z,11.60
2018-12-07T15:47:47.762Z,11.60
2018-12-07T15:50:16.322Z,11.60
2018-12-07T15:52:45.568Z,11.60
2018-12-07T15:55:13.996Z,11.50
2018-12-07T15:57:42.811Z,11.40
2018-12-07T16:00:11.758Z,11.30
2018-12-07T16:02:40.425Z,11.20
2018-12-07T16:05:09.885Z,11.10
2018-12-07T16:07:38.642Z,10.90
2018-12-07T16:10:09.264Z,10.80
2018-12-07T16:12:38.030Z,10.80
2018-12-07T16:15:07.291Z,10.80
2018-12-07T16:17:35.648Z,10.80
2018-12-07T16:20:08.279Z,10.80
2018-12-07T16:22:36.826Z,10.70
2018-12-07T16:25:06.107Z,10.80
2018-12-07T16:27:34.829Z,10.80
2018-12-07T16:30:04.329Z,10.80
2018-12-07T16:32:33.551Z,10.70
2018-12-07T16:35:02.082Z,10.60
2018-12-07T16:37:30.772Z,10.60
2018-12-07T16:39:59.538Z,10.60
2018-12-07T16:42:27.949Z,10.60
2018-12-07T16:44:56.722Z,10.50
2018-12-07T16:47:26.034Z,10.40
2018-12-07T16:49:54.907Z,10.40
2018-12-07T16:52:23.661Z,10.40
2018-12-07T16:54:52.487Z,10.40
2018-12-07T16:57:21.207Z,10.30
2018-12-07T16:59:50.159Z,10.30
2018-12-07T17:02:19.014Z,10.30
2018-12-07T17:04:47.619Z,10.20
2018-12-07T17:07:16.587Z,10.10
2018-12-07T17:09:45.351Z,10.10
2018-12-07T17:12:13.972Z,10.10
2018-12-07T17:14:42.472Z,10.00
2018-12-07T17:17:11.347Z,9.90
2018-12-07T17:19:40.109Z,10.00
2018-12-07T17:22:09.204Z,9.80
2018-12-07T17:24:38.132Z,9.80
2018-12-07T17:27:07.087Z,9.90
2018-12-07T17:29:36.041Z,9.90
2018-12-07T17:32:04.847Z,9.80
2018-12-07T17:34:34.038Z,9.70
2018-12-07T17:37:02.934Z,9.50
2018-12-07T17:39:31.873Z,9.50
2018-12-07T17:42:00.661Z,9.40
2018-12-07T17:44:28.986Z,9.40
2018-12-07T17:46:58.144Z,9.40
2018-12-07T17:49:26.805Z,9.30
2018-12-07T17:51:55.721Z,9.20
2018-12-07T17:54:24.545Z,9.20
2018-12-07T17:56:53.123Z,9.10
2018-12-07T17:59:21.877Z,9.00
2018-12-07T18:01:50.179Z,9.20
2018-12-07T18:04:18.523Z,9.20
2018-12-07T18:06:46.825Z,9.10
2018-12-07T18:09:15.431Z,9.10
2018-12-07T18:11:43.995Z,9.00
2018-12-07T18:14:12.279Z,9.10
2018-12-07T18:16:41.599Z,9.10
2018-12-07T18:19:10.069Z,9.30
2018-12-07T18:21:39.623Z,9.40
2018-12-07T18:24:09.085Z,9.50
2018-12-07T18:26:37.800Z,9.50
2018-12-07T18:29:06.647Z,9.50
2018-12-07T18:31:35.409Z,9.50
2018-12-07T18:34:04.808Z,9.50
2018-12-07T18:36:33.168Z,9.40
2018-12-07T18:39:01.870Z,9.30
2018-12-07T18:41:30.904Z,9.40
2018-12-07T18:43:59.913Z,9.40
2018-12-07T18:46:28.537Z,9.30
2018-12-07T18:48:57.116Z,9.30
2018-12-07T18:51:26.072Z,9.40
2018-12-07T18:53:55.030Z,9.40
2018-12-07T18:56:24.463Z,9.40
2018-12-07T18:58:53.513Z,9.30
2018-12-07T19:01:22.220Z,9.30
2018-12-07T19:03:51.283Z,9.30
2018-12-07T19:06:20.470Z,9.20
2018-12-07T19:08:49.451Z,9.30
2018-12-07T19:11:18.029Z,9.30
2018-12-07T19:13:47.091Z,9.30
2018-12-07T19:16:15.467Z,9.20
2018-12-07T19:18:44.277Z,9.20
2018-12-07T19:21:13.616Z,9.10
2018-12-07T19:23:42.335Z,9.20
2018-12-07T19:26:11.498Z,9.10
2018-12-07T19:28:40.275Z,9.20
2018-12-07T19:31:09.143Z,9.20
2018-12-07T19:33:37.785Z,9.20
2018-12-07T19:36:07.336Z,9.20
2018-12-07T19:38:35.935Z,9.20
2018-12-07T19:41:05.012Z,9.20
2018-12-07T19:43:34.111Z,9.20
2018-12-07T19:46:03.750Z,9.10
2018-12-07T19:48:32.630Z,9.20
2018-12-07T19:51:06.171Z,9.20
2018-12-07T19:53:35.496Z,9.20
2018-12-07T19:56:05.372Z,9.10
2018-12-07T19:58:35.015Z,9.10
2018-12-07T20:01:04.282Z,9.20
2018-12-07T20:03:33.391Z,9.20
2018-12-07T20:06:02.732Z,9.20
2018-12-07T20:08:31.710Z,9.20
2018-12-07T20:11:00.182Z,9.20
2018-12-07T20:13:28.875Z,9.20
2018-12-07T20:15:57.503Z,9.20
2018-12-07T20:18:26.552Z,9.30
2018-12-07T20:20:55.839Z,9.30
2018-12-07T20:23:24.566Z,9.40
2018-12-07T20:25:53.471Z,9.40
2018-12-07T20:28:22.311Z,9.40
2018-12-07T20:30:51.146Z,9.40
2018-12-07T20:33:20.437Z,9.40
2018-12-07T20:35:49.395Z,9.40
2018-12-07T20:38:18.391Z,9.40
2018-12-07T20:40:47.226Z,9.30
2018-12-07T20:43:15.656Z,9.30
2018-12-07T20:45:44.264Z,9.30
2018-12-07T20:48:12.815Z,9.30
2018-12-07T20:50:41.596Z,9.40
2018-12-07T20:53:10.553Z,9.40
2018-12-07T20:55:39.625Z,9.40
2018-12-07T20:58:08.931Z,9.50
2018-12-07T21:00:37.615Z,9.40
2018-12-07T21:03:06.956Z,9.40
2018-12-07T21:07:51.086Z,9.50
2018-12-07T21:11:00.802Z,9.50
2018-12-07T21:13:40.785Z,9.40
2018-12-07T21:16:46.020Z,9.40
2018-12-07T21:19:15.101Z,9.40
2018-12-07T21:21:43.987Z,9.40
2018-12-07T21:24:12.438Z,9.50
2018-12-07T21:26:41.121Z,9.50
2018-12-07T21:29:09.596Z,9.50
2018-12-07T21:31:38.257Z,9.50
2018-12-07T21:34:14.033Z,9.50
2018-12-07T21:36:45.194Z,9.60
2018-12-07T21:39:21.139Z,9.60
2018-12-07T21:41:50.347Z,9.70
2018-12-07T21:44:18.831Z,9.80
2018-12-07T21:46:47.719Z,9.90
2018-12-07T21:49:16.388Z,9.90
2018-12-07T21:52:11.303Z,10.00
2018-12-07T21:54:40.507Z,10.00
2018-12-07T21:57:09.180Z,10.10
2018-12-07T21:59:38.152Z,10.10
2018-12-07T22:02:07.271Z,10.10
2018-12-07T22:04:36.532Z,10.20
2018-12-07T22:07:05.535Z,10.20
2018-12-07T22:09:34.481Z,10.20
2018-12-07T22:12:03.800Z,10.10
2018-12-07T22:14:32.758Z,10.10
2018-12-07T22:17:01.180Z,10.00
2018-12-07T22:19:30.281Z,10.10
2018-12-07T22:21:58.875Z,10.20
2018-12-07T22:24:27.450Z,10.20
2018-12-07T22:26:55.903Z,10.20
2018-12-07T22:29:25.072Z,10.20
2018-12-07T22:31:53.687Z,10.20
2018-12-07T22:34:22.425Z,10.20
2018-12-07T22:36:51.436Z,10.20
2018-12-07T22:39:20.382Z,10.20
2018-12-07T22:41:49.178Z,10.20
2018-12-07T22:44:18.335Z,10.30
2018-12-07T22:46:47.190Z,10.20
2018-12-07T22:49:15.961Z,10.20
2018-12-07T22:51:44.535Z,10.20
2018-12-07T22:54:13.197Z,10.20
2018-12-07T22:56:41.834Z,10.20
2018-12-07T22:59:10.848Z,10.10
